Terminal Aerodrome Forecast
Issued by NWS Sioux Falls, SD

Home | Current Version | Previous Version | Text Only | Print | Product List | Glossary On
Versions: 1 2 3 4 5 6 7 8 9 10 11 12 13 14 15 16 17 18 19 20 21 22 23 24 25 26 27 28 29 30 31
000
FTUS43 KFSD 292002 AAA
TAFSUX
TAF AMD
KSUX 292002Z 2920/3018 30012KT P6SM BKN040
      TEMPO 2920/2922 6SM -TSRA BKN030CB
     FM292200 34018G25KT P6SM BKN030
      TEMPO 2922/2924 6SM TSRA OVC025CB
     FM300000 35018G25KT P6SM BKN025
     FM300800 36014KT P6SM SCT025 BKN120
     FM301400 36012KT P6SM SKC=

USA.gov is the U.S. government's official web portal to all federal, state and local government web resources and services.